createdAt,value
2022-09-02T00:01:28.438Z,66.82
2022-09-02T00:04:33.095Z,66.29
2022-09-02T00:07:37.806Z,67.36
2022-09-02T00:10:45.119Z,67.01
2022-09-02T00:13:50.553Z,66.97
2022-09-02T00:16:56.096Z,65.65
2022-09-02T00:20:00.698Z,64.32
2022-09-02T00:23:09.249Z,64.25
2022-09-02T00:26:15.330Z,62.87
2022-09-02T00:29:20.220Z,62.64
2022-09-02T00:32:24.849Z,62.66
2022-09-02T00:35:29.645Z,63.25
2022-09-02T00:38:36.752Z,63.31
2022-09-02T00:41:43.316Z,64.29
2022-09-02T00:44:48.262Z,63.68
2022-09-02T00:47:52.907Z,63.25
2022-09-02T00:50:57.470Z,61.82
2022-09-02T00:54:04.528Z,60.43
2022-09-02T00:57:14.444Z,60.89
2022-09-02T01:00:26.274Z,61.81
2022-09-02T01:03:37.343Z,55.18
2022-09-02T01:06:41.910Z,52.45
2022-09-02T01:09:46.882Z,51.81
2022-09-02T01:12:55.992Z,51.32
2022-09-02T01:16:11.561Z,51.44
2022-09-02T01:19:26.103Z,47.85
2022-09-02T01:22:32.676Z,47.23
2022-09-02T01:25:37.864Z,47.22
2022-09-02T01:28:42.311Z,48.17
2022-09-02T01:31:47.219Z,46.76
2022-09-02T01:34:52.145Z,44.96
2022-09-02T01:37:58.517Z,43.36
2022-09-02T01:41:03.135Z,44.32
2022-09-02T01:44:09.051Z,44.07
2022-09-02T01:47:17.700Z,43.24
2022-09-02T01:50:23.825Z,42.19
2022-09-02T01:53:29.968Z,42.23
2022-09-02T01:56:35.637Z,42.46
2022-09-02T01:59:40.529Z,43.30
2022-09-02T02:02:45.082Z,46.58
2022-09-02T02:05:50.047Z,46.15
2022-09-02T02:08:57.162Z,45.76
2022-09-02T02:12:02.116Z,46.32
2022-09-02T02:15:11.788Z,44.12
2022-09-02T02:18:20.992Z,44.86
2022-09-02T02:21:30.584Z,45.26
2022-09-02T02:24:35.513Z,46.95
2022-09-02T02:27:40.906Z,45.98
2022-09-02T02:30:49.419Z,44.28
2022-09-02T02:33:54.371Z,46.79
2022-09-02T02:36:59.363Z,47.15
2022-09-02T02:40:06.806Z,48.56
2022-09-02T02:43:11.338Z,47.09
2022-09-02T02:46:16.406Z,48.50
2022-09-02T02:49:20.995Z,49.03
2022-09-02T02:52:25.595Z,49.11
2022-09-02T02:55:30.891Z,48.36
2022-09-02T02:58:36.376Z,48.51
2022-09-02T03:01:41.091Z,48.44
2022-09-02T03:04:45.998Z,49.30
2022-09-02T03:07:50.948Z,48.81
2022-09-02T03:10:56.905Z,46.45
2022-09-02T03:14:04.226Z,49.33
2022-09-02T03:17:10.263Z,49.24
2022-09-02T03:20:19.535Z,48.64
2022-09-02T03:23:30.310Z,48.40
2022-09-02T03:26:36.161Z,48.54
2022-09-02T03:29:41.303Z,48.95
2022-09-02T03:32:46.172Z,49.22
2022-09-02T03:35:51.938Z,48.84
2022-09-02T03:38:57.710Z,49.09
2022-09-02T03:42:02.400Z,49.02
2022-09-02T03:45:12.644Z,48.37
2022-09-02T03:48:18.697Z,49.02
2022-09-02T03:51:24.690Z,48.47
2022-09-02T03:54:29.535Z,48.27
2022-09-02T03:57:36.351Z,48.64
2022-09-02T04:00:41.075Z,49.02
2022-09-02T04:03:46.001Z,48.46
2022-09-02T04:06:50.801Z,49.04
2022-09-02T04:09:57.232Z,48.51
2022-09-02T04:13:01.907Z,49.05
2022-09-02T04:16:11.695Z,49.49
2022-09-02T04:19:17.128Z,49.90
2022-09-02T04:22:21.915Z,49.22
2022-09-02T04:25:27.755Z,49.76
2022-09-02T04:28:34.229Z,50.26
2022-09-02T04:31:39.509Z,50.00
2022-09-02T04:34:44.105Z,50.21
2022-09-02T04:37:49.997Z,49.62
2022-09-02T04:40:55.647Z,50.39
2022-09-02T04:44:01.329Z,50.10
2022-09-02T04:47:09.555Z,50.67
2022-09-02T04:50:14.590Z,50.18
2022-09-02T04:53:36.178Z,51.14
2022-09-02T04:56:41.029Z,50.95
2022-09-02T04:59:46.227Z,51.07
2022-09-02T05:02:52.355Z,51.09
2022-09-02T05:06:03.930Z,51.61
2022-09-02T05:09:09.901Z,51.60
2022-09-02T05:12:15.831Z,51.58
2022-09-02T05:15:25.948Z,51.46
2022-09-02T05:18:33.280Z,50.70
2022-09-02T05:21:44.542Z,49.00
2022-09-02T05:24:54.110Z,50.46
2022-09-02T05:27:58.688Z,51.09
2022-09-02T05:31:13.442Z,50.56
2022-09-02T05:34:18.880Z,50.64
2022-09-02T05:37:25.919Z,51.00
2022-09-02T05:40:30.929Z,50.77
2022-09-02T05:43:40.633Z,50.31
2022-09-02T05:46:48.869Z,51.47
2022-09-02T05:49:54.932Z,50.32
2022-09-02T05:53:01.312Z,50.62
2022-09-02T05:56:06.981Z,50.59
2022-09-02T05:59:12.669Z,50.49
2022-09-02T06:02:18.300Z,49.34
2022-09-02T06:05:23.317Z,51.26
2022-09-02T06:08:37.238Z,50.88
2022-09-02T06:11:47.498Z,50.99
2022-09-02T06:14:55.275Z,51.29
2022-09-02T06:18:00.694Z,50.68
2022-09-02T06:21:08.292Z,50.67
2022-09-02T06:24:19.017Z,51.04
2022-09-02T06:27:27.741Z,51.23
2022-09-02T06:30:33.749Z,51.25
2022-09-02T06:33:39.042Z,51.75
2022-09-02T06:36:48.945Z,52.14
2022-09-02T06:39:55.923Z,51.86
2022-09-02T06:43:04.558Z,51.88
2022-09-02T06:46:21.731Z,50.15
2022-09-02T06:49:30.049Z,51.85
2022-09-02T06:52:37.061Z,52.13
2022-09-02T06:55:45.213Z,52.00
2022-09-02T06:58:50.097Z,52.57
2022-09-02T07:01:55.199Z,52.51
2022-09-02T07:05:16.162Z,52.49
2022-09-02T07:08:23.956Z,52.67
2022-09-02T07:11:28.914Z,52.39
2022-09-02T07:14:42.349Z,53.13
2022-09-02T07:17:50.445Z,53.06
2022-09-02T07:21:03.878Z,52.91
2022-09-02T07:24:12.506Z,53.28
2022-09-02T07:27:21.148Z,53.48
2022-09-02T07:30:27.687Z,53.88
2022-09-02T07:33:40.556Z,53.81
2022-09-02T07:36:50.085Z,54.01
2022-09-02T07:39:57.495Z,54.01
2022-09-02T07:43:06.175Z,54.03
2022-09-02T07:46:12.196Z,54.53
2022-09-02T07:49:20.860Z,55.37
2022-09-02T07:52:28.513Z,55.09
2022-09-02T07:55:33.907Z,55.22
2022-09-02T07:58:40.109Z,55.35
2022-09-02T08:01:44.757Z,56.06
2022-09-02T08:04:50.025Z,55.60
2022-09-02T08:07:54.783Z,56.09
2022-09-02T08:10:59.830Z,56.57
2022-09-02T08:14:04.601Z,56.50
2022-09-02T08:17:09.402Z,56.15
2022-09-02T08:20:16.031Z,56.32
2022-09-02T08:23:36.046Z,56.62
2022-09-02T08:26:42.120Z,56.72
2022-09-02T08:29:46.837Z,56.66
2022-09-02T08:32:51.533Z,57.33
2022-09-02T08:35:56.273Z,57.36
2022-09-02T08:39:05.283Z,57.82
2022-09-02T08:42:17.242Z,57.80
2022-09-02T08:45:38.602Z,58.33
2022-09-02T08:48:46.506Z,58.67
2022-09-02T08:52:00.995Z,58.92
2022-09-02T08:55:08.794Z,59.39
2022-09-02T08:58:24.048Z,60.02
2022-09-02T09:01:41.004Z,60.12
2022-09-02T09:05:24.688Z,62.58
2022-09-02T09:08:54.585Z,64.68
2022-09-02T09:12:19.521Z,63.54
2022-09-02T09:16:02.371Z,66.66
2022-09-02T09:19:27.136Z,66.05
2022-09-02T09:22:40.648Z,67.92
2022-09-02T09:25:49.206Z,66.71
2022-09-02T09:28:55.889Z,67.09
2022-09-02T09:32:02.155Z,67.87
2022-09-02T09:35:10.384Z,67.66
2022-09-02T09:38:15.833Z,67.43
2022-09-02T09:41:25.532Z,67.50
2022-09-02T09:44:49.118Z,67.91
2022-09-02T09:48:12.876Z,68.67
2022-09-02T09:51:17.577Z,68.43
2022-09-02T09:54:22.146Z,68.70
2022-09-02T09:57:35.500Z,69.18
2022-09-02T10:00:41.594Z,69.84
2022-09-02T10:04:12.133Z,70.39
2022-09-02T10:07:56.055Z,70.73
2022-09-02T10:11:07.415Z,70.53
2022-09-02T10:14:13.174Z,70.42
2022-09-02T10:17:20.851Z,70.77
2022-09-02T10:21:16.580Z,71.71
2022-09-02T10:25:00.033Z,72.06
2022-09-02T10:28:18.517Z,71.76
2022-09-02T10:31:43.788Z,72.60
2022-09-02T10:35:03.446Z,72.42
2022-09-02T10:38:23.383Z,72.63
2022-09-02T10:41:49.279Z,73.10
2022-09-02T10:45:02.768Z,73.13
2022-09-02T10:48:25.653Z,72.78
2022-09-02T10:51:51.414Z,73.45
2022-09-02T10:55:19.805Z,74.35
2022-09-02T10:59:01.874Z,74.23
2022-09-02T11:02:19.242Z,73.77
2022-09-02T11:05:53.246Z,73.87
2022-09-02T11:09:04.179Z,73.68
2022-09-02T11:12:23.822Z,74.07
2022-09-02T11:15:37.883Z,73.98
2022-09-02T11:18:49.100Z,73.98
2022-09-02T11:22:09.315Z,74.31
2022-09-02T11:25:25.294Z,74.40
2022-09-02T11:28:35.961Z,74.81
2022-09-02T11:31:48.707Z,74.74
2022-09-02T11:34:59.984Z,74.52
2022-09-02T11:38:11.800Z,75.00
2022-09-02T11:41:36.806Z,75.68
2022-09-02T11:44:57.200Z,75.38
2022-09-02T11:48:20.715Z,75.84
2022-09-02T11:51:42.230Z,75.86
2022-09-02T11:54:50.672Z,76.23
2022-09-02T11:57:58.841Z,75.63
2022-09-02T12:01:13.868Z,75.43
2022-09-02T12:04:58.529Z,76.02
2022-09-02T12:07:52.623Z,75.74
2022-09-02T12:11:00.941Z,75.60
2022-09-02T12:14:14.601Z,75.92
2022-09-02T12:17:45.605Z,77.09
2022-09-02T12:20:51.371Z,76.29
2022-09-02T12:24:00.091Z,77.22
2022-09-02T12:27:09.269Z,78.03
2022-09-02T12:30:14.706Z,77.96
2022-09-02T12:33:30.725Z,80.68
2022-09-02T12:36:45.471Z,78.42
2022-09-02T12:39:55.964Z,77.94
2022-09-02T12:43:05.374Z,77.41
2022-09-02T12:46:34.581Z,79.22
2022-09-02T12:50:03.327Z,79.47
2022-09-02T12:53:30.763Z,80.51
2022-09-02T12:56:35.685Z,80.06
2022-09-02T12:59:45.516Z,80.56
2022-09-02T13:03:29.896Z,81.33
2022-09-02T13:06:52.975Z,80.66
2022-09-02T13:10:28.052Z,82.01
2022-09-02T13:13:55.674Z,81.82
2022-09-02T13:17:34.986Z,82.53
2022-09-02T13:21:17.086Z,82.33
2022-09-02T13:24:24.892Z,82.12
2022-09-02T13:27:36.928Z,81.58
2022-09-02T13:30:59.571Z,82.42
2022-09-02T13:34:12.357Z,82.48
2022-09-02T13:37:30.499Z,81.40
2022-09-02T13:40:37.870Z,80.35
2022-09-02T13:43:45.800Z,80.45
2022-09-02T13:47:12.384Z,81.01
2022-09-02T13:50:20.903Z,81.54
2022-09-02T13:53:58.986Z,81.96
2022-09-02T13:57:11.400Z,81.67
2022-09-02T14:00:18.259Z,81.79
2022-09-02T14:03:23.443Z,82.04
2022-09-02T14:06:37.037Z,82.54
2022-09-02T14:09:43.181Z,81.87
2022-09-02T14:12:48.923Z,81.44
2022-09-02T14:15:53.523Z,82.16
2022-09-02T14:19:24.685Z,81.91
2022-09-02T14:22:31.911Z,80.99
2022-09-02T14:25:50.332Z,80.43
2022-09-02T14:28:56.115Z,80.87
2022-09-02T14:32:24.011Z,81.63
2022-09-02T14:35:28.826Z,82.33
2022-09-02T14:38:56.799Z,82.78
2022-09-02T14:42:01.729Z,83.24
2022-09-02T14:45:10.564Z,83.00
2022-09-02T14:48:27.504Z,82.00
2022-09-02T14:51:37.971Z,81.21
2022-09-02T14:54:45.403Z,81.10
2022-09-02T14:57:50.269Z,81.30
2022-09-02T15:01:02.117Z,81.32
2022-09-02T15:04:07.590Z,81.43
2022-09-02T15:07:12.207Z,82.60
2022-09-02T15:10:16.987Z,81.43
2022-09-02T15:13:30.346Z,81.85
2022-09-02T15:16:35.092Z,81.59
2022-09-02T15:19:39.806Z,81.72
2022-09-02T15:22:44.589Z,81.76
2022-09-02T15:25:49.206Z,81.62
2022-09-02T15:28:55.388Z,81.57
2022-09-02T15:32:01.102Z,82.01
2022-09-02T15:35:10.074Z,81.13
2022-09-02T15:38:14.803Z,82.06
2022-09-02T15:41:22.119Z,83.12
2022-09-02T15:44:29.445Z,83.73
2022-09-02T15:47:37.118Z,84.88
2022-09-02T15:50:42.161Z,85.00
2022-09-02T15:53:56.912Z,85.33
2022-09-02T15:57:01.946Z,84.78
2022-09-02T16:00:09.671Z,85.01
2022-09-02T16:03:19.303Z,84.28
2022-09-02T16:06:24.028Z,84.25
2022-09-02T16:09:28.399Z,83.96
2022-09-02T16:12:33.498Z,83.97
2022-09-02T16:15:38.160Z,84.01
2022-09-02T16:18:44.174Z,83.59
2022-09-02T16:21:49.563Z,83.32
2022-09-02T16:24:54.296Z,83.79
2022-09-02T16:27:59.109Z,83.84
2022-09-02T16:31:04.230Z,83.57
2022-09-02T16:34:20.817Z,84.25
2022-09-02T16:37:25.779Z,83.81
2022-09-02T16:40:30.684Z,85.07
2022-09-02T16:43:36.498Z,84.94
2022-09-02T16:46:41.798Z,84.96
2022-09-02T16:49:47.178Z,84.39
2022-09-02T16:52:51.918Z,84.16
2022-09-02T16:55:56.687Z,84.22
2022-09-02T16:59:03.759Z,84.11
2022-09-02T17:02:08.732Z,83.75
2022-09-02T17:05:15.278Z,84.91
2022-09-02T17:08:19.944Z,85.50
2022-09-02T17:11:33.927Z,86.21
2022-09-02T17:14:38.778Z,85.80
2022-09-02T17:17:43.664Z,84.92
2022-09-02T17:20:48.193Z,84.85
2022-09-02T17:23:53.841Z,84.66
2022-09-02T17:26:58.712Z,85.01
2022-09-02T17:30:03.715Z,83.48
2022-09-02T17:33:08.517Z,83.21
2022-09-02T17:36:13.240Z,82.70
2022-09-02T17:39:19.790Z,83.44
2022-09-02T17:42:24.832Z,83.82
2022-09-02T17:45:29.559Z,85.24
2022-09-02T17:48:45.073Z,85.79
2022-09-02T17:52:00.919Z,85.77
2022-09-02T17:55:05.844Z,84.97
2022-09-02T17:58:19.430Z,85.27
2022-09-02T18:01:28.093Z,85.12
2022-09-02T18:04:54.682Z,84.65
2022-09-02T18:08:04.127Z,83.52
2022-09-02T18:11:09.025Z,82.70
2022-09-02T18:14:35.913Z,83.11
2022-09-02T18:17:51.012Z,83.52
2022-09-02T18:21:28.525Z,83.13
2022-09-02T18:24:41.014Z,82.54
2022-09-02T18:28:00.763Z,82.72
2022-09-02T18:31:17.169Z,82.82
2022-09-02T18:34:33.235Z,83.39
2022-09-02T18:37:53.023Z,82.33
2022-09-02T18:41:14.583Z,81.99
2022-09-02T18:44:49.536Z,82.59
2022-09-02T18:48:05.026Z,82.54
2022-09-02T18:51:25.188Z,82.03
2022-09-02T18:54:45.203Z,81.48
2022-09-02T18:58:00.087Z,81.55
2022-09-02T19:01:38.770Z,81.61
2022-09-02T19:04:43.517Z,81.33
2022-09-02T19:08:07.760Z,80.54
2022-09-02T19:11:15.178Z,81.26
2022-09-02T19:14:32.125Z,81.73
2022-09-02T19:17:37.832Z,81.98
2022-09-02T19:20:42.908Z,81.82
2022-09-02T19:23:49.206Z,81.13
2022-09-02T19:27:04.916Z,80.33
2022-09-02T19:30:19.492Z,80.85
2022-09-02T19:33:24.438Z,79.97
2022-09-02T19:36:31.562Z,79.87
2022-09-02T19:39:36.660Z,79.93
2022-09-02T19:42:41.426Z,79.46
2022-09-02T19:45:48.305Z,78.95
2022-09-02T19:48:53.461Z,79.44
2022-09-02T19:51:58.474Z,80.02
2022-09-02T19:55:04.365Z,81.00
2022-09-02T19:58:08.936Z,82.56
2022-09-02T20:01:13.751Z,82.11
2022-09-02T20:04:19.535Z,83.43
2022-09-02T20:07:24.099Z,84.28
2022-09-02T20:10:30.050Z,84.31
2022-09-02T20:13:40.740Z,84.81
2022-09-02T20:16:46.207Z,84.90
2022-09-02T20:19:51.973Z,84.89
2022-09-02T20:22:56.697Z,85.09
2022-09-02T20:26:29.947Z,86.38
2022-09-02T20:29:57.648Z,86.58
2022-09-02T20:33:02.316Z,85.34
2022-09-02T20:36:33.568Z,84.37
2022-09-02T20:40:06.518Z,83.34
2022-09-02T20:43:35.936Z,84.00
2022-09-02T20:47:09.702Z,84.07
2022-09-02T20:50:34.485Z,83.89
2022-09-02T20:54:00.947Z,83.73
2022-09-02T20:57:27.611Z,82.88
2022-09-02T21:00:32.269Z,82.38
2022-09-02T21:03:52.428Z,82.45
2022-09-02T21:07:23.143Z,82.45
2022-09-02T21:10:44.477Z,83.20
2022-09-02T21:14:05.985Z,83.38
2022-09-02T21:17:19.054Z,81.27
2022-09-02T21:21:10.814Z,81.71
2022-09-02T21:24:25.049Z,84.36
2022-09-02T21:27:57.009Z,82.98
2022-09-02T21:31:15.716Z,82.67
2022-09-02T21:34:54.911Z,80.30
2022-09-02T21:38:16.445Z,75.27
2022-09-02T21:42:02.470Z,74.90
2022-09-02T21:45:31.317Z,72.34
2022-09-02T21:48:52.434Z,68.10
2022-09-02T21:52:27.845Z,65.51
2022-09-02T21:55:36.297Z,62.40
2022-09-02T21:59:08.776Z,60.10
2022-09-02T22:02:32.652Z,58.27
2022-09-02T22:06:12.939Z,59.35
2022-09-02T22:09:31.594Z,53.38
2022-09-02T22:12:42.281Z,55.16
2022-09-02T22:16:15.832Z,51.43
2022-09-02T22:19:21.813Z,55.33
2022-09-02T22:22:36.108Z,53.45
2022-09-02T22:25:42.014Z,57.93
2022-09-02T22:28:51.443Z,56.82
2022-09-02T22:32:00.821Z,55.92
2022-09-02T22:35:27.320Z,57.98
2022-09-02T22:38:42.948Z,58.41
2022-09-02T22:41:47.562Z,59.88
2022-09-02T22:45:31.080Z,60.25
2022-09-02T22:49:01.366Z,59.03
2022-09-02T22:52:44.863Z,59.07
2022-09-02T22:55:57.477Z,59.84
2022-09-02T22:59:10.455Z,61.33
2022-09-02T23:02:25.071Z,62.40
2022-09-02T23:06:02.009Z,62.78
2022-09-02T23:09:12.341Z,63.76
2022-09-02T23:12:33.150Z,63.00
2022-09-02T23:16:12.053Z,65.06
2022-09-02T23:19:44.526Z,65.92
2022-09-02T23:23:17.332Z,65.80
2022-09-02T23:26:48.635Z,66.09
2022-09-02T23:29:55.737Z,66.05
2022-09-02T23:33:18.601Z,65.78
2022-09-02T23:36:35.990Z,65.52
2022-09-02T23:39:58.941Z,65.68
2022-09-02T23:43:04.012Z,66.33
2022-09-02T23:46:46.196Z,66.67
2022-09-02T23:50:12.969Z,66.76
2022-09-02T23:53:24.857Z,66.06
2022-09-02T23:56:47.586Z,66.59
